Time;durP1;ratioP1;P1;durP2;ratioP2;P2;SDS_P1;SDS_P2;PMS_P1;PMS_P2;Temp;Humidity;BMP_temperature;BMP_pressure;BME280_temperature;BME280_humidity;BME280_pressure;Samples;Min_cycle;Max_cycle;Signal;HPM_P1;HPM_P2
2021/05/12 00:01:56;;;;;;;6.07;3.70;;;;;;;15.11;63.78;98855.53;4405304;32;34135;-93
2021/05/12 00:04:30;;;;;;;4.22;3.50;;;;;;;15.00;63.68;98854.50;4398383;32;35072;-93
2021/05/12 00:07:02;;;;;;;5.90;3.72;;;;;;;14.99;63.70;98850.09;4407795;32;35192;-88
2021/05/12 00:09:35;;;;;;;5.60;3.45;;;;;;;14.71;64.84;98852.72;4421128;32;33171;-88
2021/05/12 00:12:08;;;;;;;5.25;3.70;;;;;;;14.63;64.82;98851.19;4409343;32;33229;-90
2021/05/12 00:14:42;;;;;;;4.07;3.60;;;;;;;14.67;64.65;98849.66;4421391;32;33702;-89
2021/05/12 00:17:18;;;;;;;6.18;3.65;;;;;;;14.65;64.75;98846.31;4420609;32;33675;-90
2021/05/12 00:19:59;;;;;;;5.45;3.87;;;;;;;14.71;64.25;98841.84;4409257;32;34399;-89
2021/05/12 00:25:26;;;;;;;5.82;3.65;;;;;;;14.65;64.37;98833.56;4408783;32;33835;-94
2021/05/12 00:27:58;;;;;;;5.47;3.92;;;;;;;14.58;64.70;98830.09;4432817;32;34334;-94
2021/05/12 00:30:34;;;;;;;6.28;4.35;;;;;;;14.21;66.03;98838.44;4420542;32;34613;-94
2021/05/12 00:33:07;;;;;;;4.85;3.87;;;;;;;14.48;65.25;98829.88;4406116;32;34424;-90
2021/05/12 00:35:40;;;;;;;9.18;4.15;;;;;;;14.33;65.89;98835.75;4421220;32;34363;-94
2021/05/12 00:38:13;;;;;;;5.37;4.10;;;;;;;14.18;66.31;98838.09;4406977;32;34460;-93
2021/05/12 00:41:04;;;;;;;4.68;3.47;;;;;;;14.16;66.39;98835.63;4391670;32;33966;-94
2021/05/12 00:43:36;;;;;;;4.35;3.12;;;;;;;14.35;66.12;98832.81;4418696;32;33196;-89
2021/05/12 00:46:10;;;;;;;9.07;4.32;;;;;;;14.39;65.31;98828.56;4421149;32;34267;-94
2021/05/12 00:48:42;;;;;;;4.35;3.40;;;;;;;14.40;65.36;98830.19;4418316;32;34801;-94
2021/05/12 00:51:23;;;;;;;6.50;3.42;;;;;;;14.58;64.53;98821.09;4393982;32;35000;-88
2021/05/12 00:53:55;;;;;;;5.20;4.00;;;;;;;14.03;66.50;98817.63;4408025;32;34557;-90
2021/05/12 00:56:29;;;;;;;8.05;4.00;;;;;;;14.11;66.21;98816.44;4408638;32;33293;-89
2021/05/12 00:59:02;;;;;;;6.55;3.90;;;;;;;14.51;64.74;98815.78;4405034;32;34768;-89
2021/05/12 01:01:36;;;;;;;5.97;3.53;;;;;;;14.12;66.18;98813.50;4406627;32;33147;-94
2021/05/12 01:04:09;;;;;;;6.45;4.32;;;;;;;14.25;65.63;98817.06;4395064;32;34850;-90
2021/05/12 01:06:42;;;;;;;6.05;3.50;;;;;;;14.34;64.89;98814.81;4408749;32;33722;-94
2021/05/12 01:09:15;;;;;;;6.25;3.78;;;;;;;14.27;64.96;98813.03;4395276;32;34462;-89
2021/05/12 01:11:48;;;;;;;5.28;3.53;;;;;;;13.67;67.30;98813.97;4408669;32;33545;-89
2021/05/12 01:14:21;;;;;;;5.40;3.60;;;;;;;13.93;66.73;98815.44;4395528;32;33642;-89
2021/05/12 01:16:55;;;;;;;3.97;3.58;;;;;;;14.19;65.88;98807.97;4405180;32;33508;-90
2021/05/12 01:19:27;;;;;;;5.65;3.55;;;;;;;14.39;64.58;98812.25;4394353;32;35483;-90
2021/05/12 01:22:02;;;;;;;5.30;3.70;;;;;;;14.25;64.48;98804.31;4407460;32;33431;-90
2021/05/12 01:24:35;;;;;;;6.97;3.25;;;;;;;14.09;64.88;98805.00;4406828;32;33153;-94
2021/05/12 01:27:10;;;;;;;5.68;4.20;;;;;;;13.95;65.12;98799.75;4382998;32;34527;-90
2021/05/12 01:29:42;;;;;;;5.93;3.55;;;;;;;14.10;64.75;98809.34;4395251;32;34719;-89
2021/05/12 01:32:17;;;;;;;5.12;3.70;;;;;;;13.97;65.26;98794.09;4383969;32;33231;-94
2021/05/12 01:34:49;;;;;;;5.22;3.50;;;;;;;13.83;65.39;98790.75;4392924;32;34598;-94
2021/05/12 01:37:35;;;;;;;4.75;3.70;;;;;;;13.95;65.16;98791.63;4387062;32;35159;-90
2021/05/12 01:40:09;;;;;;;5.95;3.97;;;;;;;13.77;66.04;98780.81;4379834;32;34666;-90
2021/05/12 01:42:46;;;;;;;4.37;3.85;;;;;;;13.87;65.75;98783.78;4381049;32;34515;-89
2021/05/12 01:45:19;;;;;;;7.25;3.95;;;;;;;13.78;66.15;98777.03;4406894;32;32862;-90
2021/05/12 01:47:53;;;;;;;7.65;3.87;;;;;;;13.68;66.29;98780.31;4406574;32;33793;-93
2021/05/12 01:50:26;;;;;;;5.03;3.70;;;;;;;13.90;65.68;98777.06;4405473;32;34804;-90
2021/05/12 01:52:59;;;;;;;5.47;4.10;;;;;;;13.71;66.08;98774.44;4395677;32;34560;-90
2021/05/12 01:55:32;;;;;;;8.07;4.47;;;;;;;13.69;65.83;98770.28;4407168;32;33510;-90
2021/05/12 01:58:05;;;;;;;7.32;3.70;;;;;;;13.54;66.48;98766.09;4407159;32;33695;-90
2021/05/12 02:00:49;;;;;;;6.60;4.50;;;;;;;13.49;66.96;98765.13;4395361;32;33381;-94
2021/05/12 02:03:25;;;;;;;5.70;4.25;;;;;;;13.52;67.37;98765.50;4393821;32;34536;-94
2021/05/12 02:05:58;;;;;;;4.60;3.70;;;;;;;13.49;66.71;98763.25;4393341;32;33640;-89
2021/05/12 02:08:31;;;;;;;7.80;4.25;;;;;;;13.67;66.17;98764.28;4393801;32;34639;-90
2021/05/12 02:11:05;;;;;;;7.10;3.70;;;;;;;13.44;66.44;98752.25;4394939;32;33634;-90
2021/05/12 02:13:38;;;;;;;6.15;3.42;;;;;;;13.80;64.89;98749.66;4406753;32;33603;-90
2021/05/12 02:16:11;;;;;;;5.45;3.90;;;;;;;13.78;64.66;98752.59;4406769;32;34070;-90
2021/05/12 02:18:44;;;;;;;4.62;3.45;;;;;;;13.28;66.72;98752.84;4405409;32;34345;-94
2021/05/12 02:28:25;;;;;;;4.57;3.55;;;;;;;13.38;65.85;98747.75;4414469;27;36568;-93
2021/05/12 02:31:11;;;;;;;4.20;3.67;;;;;;;13.24;66.48;98736.22;4427594;32;35255;-90
2021/05/12 02:33:45;;;;;;;6.32;3.65;;;;;;;13.25;66.36;98733.28;4390450;32;34976;-90
2021/05/12 02:36:19;;;;;;;3.40;3.10;;;;;;;13.35;65.80;98731.91;4380843;32;34525;-90
2021/05/12 02:38:52;;;;;;;5.22;3.45;;;;;;;13.29;65.95;98735.53;4407663;32;34055;-93
2021/05/12 02:41:27;;;;;;;10.05;4.57;;;;;;;13.29;65.62;98738.25;4381520;32;34417;-95
2021/05/12 02:44:00;;;;;;;5.65;3.50;;;;;;;13.27;65.74;98734.94;4375930;32;34484;-94
2021/05/12 02:46:34;;;;;;;5.82;3.70;;;;;;;13.24;65.62;98742.47;4387184;32;34767;-89
2021/05/12 02:49:06;;;;;;;6.82;3.42;;;;;;;13.26;65.79;98739.50;4395237;32;33306;-94
2021/05/12 02:52:03;;;;;;;8.15;4.57;;;;;;;13.14;66.11;98734.03;4395746;32;37465;-94
2021/05/12 02:54:37;;;;;;;5.93;3.20;;;;;;;13.11;65.94;98737.19;4399388;32;35142;-94
2021/05/12 02:57:26;;;;;;;6.87;3.75;;;;;;;13.29;64.82;98733.63;4387818;32;35698;-94
2021/05/12 02:59:58;;;;;;;7.50;3.80;;;;;;;13.34;64.79;98739.25;4390528;32;34153;-94
2021/05/12 03:02:32;;;;;;;3.65;3.00;;;;;;;13.01;66.13;98736.94;4379492;32;33507;-93
2021/05/12 03:05:06;;;;;;;5.80;3.15;;;;;;;12.98;66.23;98753.63;4379956;32;34572;-94
2021/05/12 03:07:40;;;;;;;3.15;2.85;;;;;;;13.09;65.79;98752.88;4374270;32;34449;-94
2021/05/12 03:10:14;;;;;;;7.10;3.47;;;;;;;13.15;65.50;98759.28;4377484;32;33709;-93
2021/05/12 03:13:58;;;;;;;5.12;3.03;;;;;;;12.86;66.24;98757.13;4410335;27;34655;-94
2021/05/12 03:16:31;;;;;;;6.15;3.65;;;;;;;12.79;66.90;98750.94;4421731;32;33505;-93
2021/05/12 03:19:05;;;;;;;5.28;2.97;;;;;;;12.61;67.58;98742.81;4386088;32;34229;-89
2021/05/12 03:21:38;;;;;;;4.32;3.30;;;;;;;12.94;66.65;98750.56;4409963;32;34129;-93
2021/05/12 03:24:12;;;;;;;4.43;2.87;;;;;;;13.05;66.32;98749.81;4398598;32;33608;-94
2021/05/12 03:26:46;;;;;;;5.43;3.47;;;;;;;13.00;66.36;98746.13;4395072;32;35174;-89
2021/05/12 03:29:19;;;;;;;4.15;2.78;;;;;;;13.10;65.78;98751.84;4403492;32;34131;-90
2021/05/12 03:31:51;;;;;;;4.00;3.22;;;;;;;12.95;66.23;98748.66;4423143;32;33131;-93
2021/05/12 03:34:25;;;;;;;4.40;3.20;;;;;;;12.88;66.75;98746.88;4384473;32;35403;-95
2021/05/12 03:40:27;;;;;;;6.55;3.67;;;;;;;13.37;65.17;98746.09;4325370;32;36643;-93
2021/05/12 03:43:16;;;;;;;5.40;3.70;;;;;;;13.22;65.79;98749.19;4387647;32;32828;-89
2021/05/12 03:45:48;;;;;;;5.60;3.30;;;;;;;13.20;66.09;98746.72;4367469;32;33904;-89
2021/05/12 03:48:22;;;;;;;7.43;3.03;;;;;;;13.33;65.99;98734.84;4391840;32;34479;-94
2021/05/12 03:50:55;;;;;;;5.87;2.83;;;;;;;13.50;65.50;98732.34;4384836;32;33906;-89
2021/05/12 03:53:28;;;;;;;5.65;3.15;;;;;;;13.77;64.84;98730.06;4403351;32;33450;-93
2021/05/12 03:56:03;;;;;;;4.87;2.97;;;;;;;13.99;64.69;98729.47;4406204;32;32808;-93
2021/05/12 03:58:36;;;;;;;5.07;2.97;;;;;;;13.98;65.01;98729.72;4394373;32;33985;-89
2021/05/12 04:01:08;;;;;;;4.95;2.92;;;;;;;14.16;64.72;98732.34;4394127;32;33266;-89
2021/05/12 04:03:41;;;;;;;4.68;2.87;;;;;;;14.11;65.03;98730.31;4394295;32;33251;-93
2021/05/12 04:06:17;;;;;;;6.32;2.87;;;;;;;14.22;64.98;98727.84;4394644;32;34447;-94
2021/05/12 04:08:51;;;;;;;7.60;3.28;;;;;;;14.45;64.82;98727.84;4379325;32;34988;-89
2021/05/12 04:11:23;;;;;;;5.97;3.47;;;;;;;14.50;65.09;98727.13;4406049;32;33520;-94
2021/05/12 04:13:58;;;;;;;4.35;2.80;;;;;;;14.63;65.43;98737.78;4380995;32;35268;-89
2021/05/12 04:16:31;;;;;;;4.35;3.15;;;;;;;14.78;64.29;98736.47;4405892;32;34396;-89
2021/05/12 04:19:05;;;;;;;4.80;3.67;;;;;;;14.85;64.22;98731.75;4391466;32;34161;-93
2021/05/12 04:21:37;;;;;;;5.15;3.05;;;;;;;15.30;63.23;98731.00;4379642;32;34514;-94
2021/05/12 04:24:14;;;;;;;8.45;3.25;;;;;;;15.45;62.09;98724.19;4388036;32;33786;-89
2021/05/12 04:26:47;;;;;;;9.80;3.47;;;;;;;15.54;61.11;98731.72;4393960;32;33761;-94
2021/05/12 04:29:22;;;;;;;9.10;3.50;;;;;;;15.92;59.93;98725.88;4393205;32;34883;-89
2021/05/12 04:31:54;;;;;;;7.12;3.15;;;;;;;16.31;57.84;98726.75;4405771;32;34114;-89
2021/05/12 04:34:27;;;;;;;5.82;2.85;;;;;;;16.87;57.63;98725.91;4407040;32;33068;-91
2021/05/12 04:37:00;;;;;;;8.45;3.33;;;;;;;17.03;56.75;98724.19;4407105;32;33682;-89
2021/05/12 04:43:23;;;;;;;7.00;2.78;;;;;;;17.54;54.63;98713.00;4376917;32;36601;-96
2021/05/12 04:50:09;;;;;;;8.93;2.70;;;;;;;17.80;52.16;98727.75;4387194;32;33306;-96
2021/05/12 04:52:44;;;;;;;8.63;2.60;;;;;;;18.25;51.83;98729.25;4368665;32;34044;-96
2021/05/12 04:55:36;;;;;;;5.90;2.97;;;;;;;18.54;51.29;98726.13;4374408;32;33417;-92
2021/05/12 04:58:16;;;;;;;9.50;3.25;;;;;;;18.77;51.08;98715.84;4518083;27;33501;-96
2021/05/12 05:01:24;;;;;;;5.20;2.90;;;;;;;18.58;50.96;98721.78;3519969;27;20119;-96
2021/05/12 05:04:21;;;;;;;7.78;2.80;;;;;;;19.36;49.66;98720.22;4298899;33;33845;-96
2021/05/12 05:08:07;;;;;;;10.25;3.00;;;;;;;19.65;48.92;98722.47;4286610;33;32506;-95
2021/05/12 05:11:05;;;;;;;6.72;2.80;;;;;;;19.85;48.15;98728.03;4579034;27;32089;-90
2021/05/12 05:17:53;;;;;;;5.40;1.85;;;;;;;19.80;45.18;98717.03;1539615;27;20358;-95
2021/05/12 05:21:08;;;;;;;4.85;2.37;;;;;;;19.98;44.32;98714.84;4383293;27;31365;-96
2021/05/12 05:23:56;;;;;;;9.18;1.98;;;;;;;20.36;44.31;98709.88;4368010;32;35229;-96
2021/05/12 05:27:33;;;;;;;5.87;1.70;;;;;;;20.27;42.87;98710.44;4418552;27;34072;-96
2021/05/12 05:33:54;;;;;;;4.60;1.73;;;;;;;20.85;42.45;98694.69;4339041;33;33199;-95
2021/05/12 05:36:53;;;;;;;5.43;1.70;;;;;;;20.28;42.90;98695.66;4529662;27;34316;-96
2021/05/12 05:40:26;;;;;;;7.72;2.05;;;;;;;20.63;41.34;98704.87;4699831;27;34605;-94
2021/05/12 05:51:26;;;;;;;6.60;1.60;;;;;;;20.82;41.18;98696.06;1583625;28;20379;-90
2021/05/12 05:54:37;;;;;;;5.35;1.67;;;;;;;21.37;40.56;98696.06;4214466;34;31799;-96
2021/05/12 05:57:47;;;;;;;8.07;2.05;;;;;;;21.31;39.97;98708.22;4213338;33;33109;-95
2021/05/12 06:01:09;;;;;;;4.37;1.77;;;;;;;21.58;38.93;98705.03;4201851;33;32971;-96
2021/05/12 06:04:53;;;;;;;3.55;1.60;;;;;;;21.82;39.45;98694.16;4449077;28;20090;-94
2021/05/12 06:12:02;;;;;;;11.10;1.70;;;;;;;21.59;40.04;98703.94;1305056;28;20277;-91
2021/05/12 06:19:43;;;;;;;17.48;2.40;;;;;;;22.23;39.55;98690.25;4765549;28;31512;-94
2021/05/12 06:22:48;;;;;;;6.60;1.90;;;;;;;22.79;36.98;98696.28;4197210;34;33971;-96
2021/05/12 06:40:20;;;;;;;5.36;1.76;;;;;;;23.30;36.35;98709.44;4315658;28;33709;31
2021/05/12 06:47:15;;;;;;;6.57;2.30;;;;;;;23.11;37.43;98714.09;4126443;28;21288;31
2021/05/12 06:53:47;;;;;;;5.00;2.22;;;;;;;23.10;38.16;98727.06;4133333;34;35523;-94
2021/05/12 06:56:27;;;;;;;7.07;1.98;;;;;;;23.98;37.65;98718.38;4126726;34;33488;-96
2021/05/12 07:03:30;;;;;;;12.18;2.35;;;;;;;23.88;36.42;98715.78;4125272;28;20126;-96
2021/05/12 07:07:08;;;;;;;11.93;2.20;;;;;;;23.61;36.50;98731.06;4644933;28;20046;-95
2021/05/12 07:10:07;;;;;;;4.12;2.05;;;;;;;24.23;37.54;98730.13;4228695;33;33640;-94
2021/05/12 07:13:08;;;;;;;12.80;3.20;;;;;;;24.38;34.84;98726.25;4394131;28;33687;-96
2021/05/12 07:16:35;;;;;;;9.07;2.60;;;;;;;23.04;36.85;98726.28;4361075;28;34271;-96
2021/05/12 07:19:47;;;;;;;13.13;3.00;;;;;;;23.76;37.30;98719.78;4220528;33;34119;-96
2021/05/12 07:22:52;;;;;;;11.52;2.42;;;;;;;24.00;37.97;98709.78;4436387;28;33286;31
2021/05/12 07:29:02;;;;;;;7.62;2.95;;;;;;;24.10;36.75;98721.50;4627803;28;21051;-96
2021/05/12 07:32:02;;;;;;;14.52;3.22;;;;;;;24.28;36.72;98714.28;4224673;33;34785;-96
2021/05/12 07:34:52;;;;;;;16.20;2.30;;;;;;;23.79;37.06;98718.38;4627338;28;34092;-96
2021/05/12 07:41:29;;;;;;;8.40;2.85;;;;;;;24.26;36.30;98711.00;4806391;28;20085;-96
2021/05/12 08:31:43;;;;;;;6.57;2.12;;;;;;;26.95;32.09;98663.06;4210919;33;32397;-96
2021/05/12 08:34:51;;;;;;;9.50;2.28;;;;;;;27.77;31.59;98668.06;4198842;34;33352;-96
2021/05/12 08:38:07;;;;;;;13.45;2.83;;;;;;;27.87;30.96;98675.22;4203230;34;20516;-96
2021/05/12 08:41:35;;;;;;;5.00;1.67;;;;;;;27.87;30.60;98675.22;4120637;34;33923;-96
2021/05/12 08:44:38;;;;;;;6.12;2.15;;;;;;;28.42;29.52;98668.09;4128220;34;34735;-96
2021/05/12 08:47:59;;;;;;;6.60;2.10;;;;;;;28.44;31.60;98668.56;4115079;34;31759;-96
2021/05/12 08:51:32;;;;;;;6.07;1.90;;;;;;;28.04;30.16;98673.59;4170324;34;20166;-96
2021/05/12 08:54:28;;;;;;;6.47;2.65;;;;;;;28.71;29.86;98663.75;4388908;28;33927;-96
2021/05/12 08:57:21;;;;;;;6.75;2.45;;;;;;;28.85;29.41;98652.41;4241446;28;34107;-96
2021/05/12 09:00:48;;;;;;;11.80;2.65;;;;;;;28.21;29.58;98651.34;4241107;33;34457;-96
2021/05/12 09:03:50;;;;;;;;;;;;;;;27.73;31.16;98658.75;4374655;28;34284;-95
2021/05/12 09:06:50;;;;;;;5.25;2.37;;;;;;;28.00;30.51;98649.25;4220563;33;34883;-94
2021/05/12 09:09:41;;;;;;;12.18;2.60;;;;;;;27.53;30.36;98649.12;4230641;33;33499;-95
2021/05/12 09:12:52;;;;;;;11.23;2.67;;;;;;;27.50;30.93;98647.03;4213267;33;35580;-96
2021/05/12 09:16:46;;;;;;;4.45;2.30;;;;;;;27.88;30.69;98643.53;4239637;33;34348;-96
2021/05/12 09:20:26;;;;;;;10.68;2.97;;;;;;;27.98;30.40;98648.78;4212623;28;35062;31
2021/05/12 10:22:56;;;;;;;13.73;3.10;;;;;;;27.28;34.56;98653.50;4190570;31;9080938;-96
2021/05/12 10:26:04;;;;;;;11.90;2.60;;;;;;;27.28;34.56;98653.50;4361181;32;32672;-95
2021/05/12 10:29:26;;;;;;;10.40;3.00;;;;;;;27.28;34.09;98648.75;4341412;32;32830;-95
2021/05/12 10:32:23;;;;;;;3.35;1.98;;;;;;;27.58;34.97;98662.84;4406956;32;33566;-86
2021/05/12 10:35:00;;;;;;;7.43;2.60;;;;;;;26.45;37.65;98666.09;4395306;32;33602;-86
2021/05/12 10:37:41;;;;;;;9.73;2.42;;;;;;;25.32;40.49;98658.66;4393429;32;33154;-87
2021/05/12 10:40:20;;;;;;;8.35;3.30;;;;;;;25.45;40.35;98656.97;4382769;32;33586;-87
2021/05/12 10:43:02;;;;;;;;;;;;;;;25.00;41.81;98651.31;4397325;32;33789;-86
2021/05/12 10:48:43;;;;;;;11.12;3.75;;;;;;;25.57;41.50;98661.13;4382593;32;33643;-87
2021/05/12 10:51:26;;;;;;;7.00;4.50;;;;;;;25.40;42.80;98665.38;4409111;32;33600;-87
2021/05/12 10:54:07;;;;;;;10.20;5.25;;;;;;;25.02;42.13;98662.88;4385790;32;36847;-94
2021/05/12 10:56:45;;;;;;;8.90;5.62;;;;;;;25.16;42.65;98673.91;4422097;32;33591;-87
2021/05/12 10:59:25;;;;;;;10.73;7.07;;;;;;;25.30;42.78;98665.63;4446135;32;33416;-87
2021/05/12 11:01:59;;;;;;;22.67;8.40;;;;;;;24.54;43.73;98668.81;4438121;32;33261;-87
2021/05/12 11:04:32;;;;;;;11.65;7.53;;;;;;;24.07;45.39;98672.44;4444711;32;32523;-87
2021/05/12 11:07:06;;;;;;;9.80;7.18;;;;;;;23.79;45.67;98671.50;4448884;32;33776;-86
2021/05/12 11:09:43;;;;;;;13.00;7.30;;;;;;;23.50;47.64;98671.66;4446273;32;34043;-86
2021/05/12 11:12:19;;;;;;;10.57;7.12;;;;;;;23.03;47.65;98669.53;4429130;32;33159;-86
2021/05/12 11:14:59;;;;;;;11.23;7.37;;;;;;;22.81;48.77;98661.00;4433824;32;34633;-87
2021/05/12 11:17:45;;;;;;;15.88;7.12;;;;;;;23.04;48.59;98651.87;4443572;32;34339;-86
2021/05/12 11:20:21;;;;;;;10.00;6.97;;;;;;;22.55;49.92;98653.84;4429358;32;33914;-87
2021/05/12 11:22:55;;;;;;;9.85;6.53;;;;;;;22.38;50.41;98648.00;4439501;32;33144;-86
2021/05/12 11:25:37;;;;;;;11.12;6.93;;;;;;;22.21;50.89;98649.22;4407600;32;34938;-93
2021/05/12 11:33:39;;;;;;;12.37;6.05;;;;;;;22.25;52.06;98629.41;4436964;32;34076;-87
2021/05/12 11:36:22;;;;;;;14.15;7.68;;;;;;;22.18;53.50;98627.00;4425320;32;33662;-87
2021/05/12 11:39:01;;;;;;;12.80;7.53;;;;;;;22.12;53.87;98622.66;4436339;32;33680;-86
2021/05/12 11:41:35;;;;;;;11.55;7.70;;;;;;;22.12;55.29;98612.47;4411392;32;35514;-87
2021/05/12 11:44:07;;;;;;;11.38;7.87;;;;;;;21.91;56.22;98611.84;4410314;32;33032;-87
2021/05/12 11:46:41;;;;;;;18.55;8.93;;;;;;;22.19;56.58;98617.62;4433677;32;32875;-91
2021/05/12 11:49:19;;;;;;;12.70;9.55;;;;;;;21.62;59.49;98626.41;4419018;32;34365;-92
2021/05/12 11:51:58;;;;;;;14.15;11.00;;;;;;;21.53;60.95;98644.63;4424214;32;34346;-92
2021/05/12 11:54:32;;;;;;;20.15;12.90;;;;;;;20.85;63.43;98651.56;4423718;32;33162;-91
2021/05/12 11:57:05;;;;;;;14.77;12.30;;;;;;;20.44;63.85;98668.97;4424751;32;33742;-92
2021/05/12 11:59:40;;;;;;;17.30;12.37;;;;;;;19.95;65.94;98664.12;4424340;32;34886;-92
2021/05/12 12:02:14;;;;;;;16.10;13.50;;;;;;;20.03;66.23;98668.22;4423920;32;33279;-92
2021/05/12 12:04:59;;;;;;;14.15;12.73;;;;;;;20.38;64.69;98661.88;4424065;32;33186;-93
2021/05/12 12:07:33;;;;;;;18.33;13.00;;;;;;;20.07;65.27;98666.59;4411393;32;34475;-92
2021/05/12 12:10:10;;;;;;;20.27;11.65;;;;;;;20.53;64.72;98682.97;4420757;32;33722;-91
2021/05/12 12:12:56;;;;;;;16.30;12.93;;;;;;;21.04;62.91;98676.47;4407541;32;35040;-91
2021/05/12 12:15:38;;;;;;;15.30;12.70;;;;;;;20.52;65.23;98678.56;4407362;32;33966;-90
2021/05/12 12:18:48;;;;;;;16.08;12.50;;;;;;;20.27;67.29;98685.75;4396016;32;34210;-91
2021/05/12 12:21:33;;;;;;;13.65;10.90;;;;;;;20.37;67.29;98667.63;4399997;32;32097;-91
2021/05/12 12:24:15;;;;;;;15.97;11.33;;;;;;;20.52;65.60;98667.59;4421581;32;34671;-91
2021/05/12 12:26:54;;;;;;;13.20;10.07;;;;;;;20.76;65.58;98659.59;4407419;32;33886;-90
2021/05/12 12:29:31;;;;;;;11.82;10.20;;;;;;;20.90;63.57;98668.03;4393776;32;35456;-89
2021/05/12 12:32:06;;;;;;;12.18;9.93;;;;;;;20.95;63.68;98659.75;4408561;32;34189;-89
2021/05/12 12:34:40;;;;;;;14.70;10.23;;;;;;;21.05;62.08;98660.81;4405941;32;34884;-88
2021/05/12 12:37:20;;;;;;;14.02;10.80;;;;;;;20.92;62.56;98643.03;4420181;32;33245;-89
2021/05/12 12:39:58;;;;;;;16.98;12.48;;;;;;;20.83;64.29;98642.81;4407401;32;33390;-89
2021/05/12 12:42:36;;;;;;;15.10;12.30;;;;;;;21.11;64.13;98627.56;4409040;32;33553;-88
2021/05/12 12:45:20;;;;;;;12.98;11.65;;;;;;;20.97;64.00;98624.62;4428733;32;34120;-90
2021/05/12 12:47:58;;;;;;;14.38;12.65;;;;;;;21.10;63.20;98619.59;4403913;32;33951;-89
2021/05/12 12:50:34;;;;;;;14.35;12.18;;;;;;;21.00;64.35;98625.97;4408710;32;33427;-88
2021/05/12 12:53:10;;;;;;;17.52;13.35;;;;;;;21.33;63.25;98613.41;4408496;32;34056;-92
2021/05/12 12:55:42;;;;;;;16.73;13.25;;;;;;;21.34;62.30;98630.69;4397265;32;35004;-90
2021/05/12 12:58:15;;;;;;;16.67;13.20;;;;;;;21.34;63.77;98627.94;4404987;32;34700;-89
2021/05/12 13:00:48;;;;;;;21.42;14.60;;;;;;;21.45;63.77;98631.44;4405686;32;36008;-89
2021/05/12 13:03:22;;;;;;;17.10;14.98;;;;;;;21.14;64.99;98626.16;4395797;32;35854;-90
2021/05/12 13:05:59;;;;;;;16.05;13.98;;;;;;;21.19;64.52;98617.06;4417814;32;33499;-89
2021/05/12 13:08:36;;;;;;;18.02;15.00;;;;;;;21.32;65.46;98625.50;4405799;32;33177;-90
2021/05/12 13:11:11;;;;;;;18.50;14.48;;;;;;;21.33;65.67;98629.06;4418771;32;34449;-89
2021/05/12 13:13:50;;;;;;;19.02;14.77;;;;;;;21.32;64.56;98617.25;4417911;32;34825;-90
2021/05/12 13:16:32;;;;;;;18.42;14.18;;;;;;;21.45;64.58;98614.94;4393872;32;33480;-90
2021/05/12 13:19:19;;;;;;;17.10;13.45;;;;;;;21.60;63.95;98612.13;4406882;32;34383;-89
2021/05/12 13:21:54;;;;;;;16.62;12.20;;;;;;;21.37;64.17;98612.84;4405456;32;35111;-90
2021/05/12 13:24:32;;;;;;;16.55;13.23;;;;;;;21.08;65.05;98610.84;4406818;32;33423;-91
2021/05/12 13:27:08;;;;;;;19.23;12.48;;;;;;;20.71;65.62;98612.13;4404775;32;34681;-91
2021/05/12 13:29:41;;;;;;;14.48;11.82;;;;;;;20.74;67.12;98606.06;4419802;32;33962;-90
2021/05/12 13:32:13;;;;;;;24.75;14.23;;;;;;;20.51;67.97;98600.09;4405066;32;33681;-89
2021/05/12 13:34:46;;;;;;;18.42;13.07;;;;;;;20.36;69.14;98603.72;4406424;32;34611;-89
2021/05/12 13:37:19;;;;;;;15.57;13.07;;;;;;;20.63;68.62;98605.25;4407843;32;33465;-91
2021/05/12 13:39:52;;;;;;;17.67;13.62;;;;;;;20.83;68.71;98603.56;4396833;32;32836;-89
2021/05/12 13:42:25;;;;;;;16.37;13.45;;;;;;;21.08;68.18;98603.41;4421388;32;34146;-91
2021/05/12 13:44:58;;;;;;;15.35;12.18;;;;;;;20.98;67.83;98611.69;4392343;32;35082;-92
2021/05/12 13:47:31;;;;;;;14.40;12.75;;;;;;;21.39;66.59;98616.09;4403295;32;33861;-92
2021/05/12 13:50:05;;;;;;;17.40;12.77;;;;;;;21.63;67.89;98617.06;4405276;32;33130;-89
2021/05/12 13:52:49;;;;;;;14.90;12.80;;;;;;;22.11;65.60;98610.00;4405150;32;34254;-91
2021/05/12 13:55:29;;;;;;;15.30;12.60;;;;;;;22.11;66.10;98604.50;4416303;32;33702;-91
2021/05/12 14:03:46;;;;;;;22.58;18.75;;;;;;;21.46;65.62;98594.62;4408394;32;33774;-88
2021/05/12 14:06:25;;;;;;;22.45;18.15;;;;;;;21.65;65.38;98586.53;4405301;32;33844;-91
2021/05/12 14:09:12;;;;;;;20.30;18.05;;;;;;;22.04;65.28;98591.09;4402048;32;33530;-91
2021/05/12 14:11:49;;;;;;;21.12;17.77;;;;;;;22.41;65.33;98588.78;4407359;32;33257;-90
2021/05/12 14:17:05;;;;;;;31.90;21.37;;;;;;;23.01;62.53;98569.00;4405062;32;34824;-88
2021/05/12 14:19:38;;;;;;;27.80;20.75;;;;;;;22.63;62.18;98567.03;4405731;32;34374;-88
2021/05/12 14:22:10;;;;;;;27.77;19.80;;;;;;;22.62;62.75;98562.66;4396925;32;33224;-93
2021/05/12 14:24:44;;;;;;;28.95;22.25;;;;;;;22.38;63.43;98566.25;4394860;32;34789;-88
2021/05/12 14:27:18;;;;;;;28.60;21.85;;;;;;;21.77;62.64;98564.16;4406353;32;33758;-89
2021/05/12 14:29:53;;;;;;;28.00;21.40;;;;;;;21.40;64.31;98563.59;4406792;32;33089;-91
2021/05/12 14:32:26;;;;;;;32.05;22.17;;;;;;;21.40;64.54;98562.78;4394355;32;33645;-94
2021/05/12 14:35:01;;;;;;;25.58;18.60;;;;;;;21.69;65.31;98557.31;4395050;32;33656;-89
2021/05/12 14:37:33;;;;;;;21.50;16.95;;;;;;;21.81;63.83;98560.53;4405386;32;33690;-89
2021/05/12 14:40:07;;;;;;;18.08;13.77;;;;;;;21.94;65.09;98572.75;4395444;32;33396;-88
2021/05/12 14:42:40;;;;;;;16.83;13.55;;;;;;;21.88;62.28;98576.69;4382078;32;34720;-88
2021/05/12 14:45:13;;;;;;;14.95;12.35;;;;;;;21.63;62.33;98573.06;4407267;32;33615;-93
2021/05/12 14:47:53;;;;;;;15.77;12.20;;;;;;;21.57;63.85;98578.88;4406623;32;33739;-93
2021/05/12 14:50:40;;;;;;;16.73;11.48;;;;;;;21.72;63.77;98570.50;4417349;32;34356;-88
2021/05/12 14:53:17;;;;;;;13.77;10.57;;;;;;;21.74;64.35;98571.03;4417774;32;32916;-89
2021/05/12 15:06:49;;;;;;;12.80;9.90;;;;;;;21.52;63.16;98563.25;4418436;32;35145;-94
2021/05/12 15:09:22;;;;;;;10.50;9.50;;;;;;;21.79;65.14;98556.41;4395318;32;33830;-88
2021/05/12 15:11:55;;;;;;;10.38;9.38;;;;;;;21.77;63.55;98559.47;4419209;32;34238;-89
2021/05/12 15:14:28;;;;;;;11.10;9.82;;;;;;;21.91;62.19;98556.84;4406669;32;35320;-89
2021/05/12 15:17:01;;;;;;;10.00;9.00;;;;;;;22.20;61.90;98559.56;4396056;32;33818;-89
2021/05/12 15:19:34;;;;;;;11.77;9.63;;;;;;;21.91;62.24;98556.03;4405590;32;34285;-88
2021/05/12 15:22:10;;;;;;;10.38;9.27;;;;;;;22.08;61.80;98555.56;4422581;32;33777;-89
2021/05/12 15:24:43;;;;;;;11.27;8.68;;;;;;;21.93;60.96;98556.53;4396029;32;33047;-90
2021/05/12 15:27:16;;;;;;;11.23;9.30;;;;;;;21.59;62.87;98547.25;4418660;32;33622;-89
2021/05/12 15:29:48;;;;;;;11.55;10.48;;;;;;;21.91;62.49;98551.34;4405548;32;34909;-88
2021/05/12 15:32:22;;;;;;;10.98;9.38;;;;;;;21.79;61.61;98537.97;4420721;32;34523;-88
2021/05/12 15:34:58;;;;;;;11.45;9.23;;;;;;;21.47;62.03;98538.56;4420713;32;33980;-88
2021/05/12 15:37:31;;;;;;;11.80;10.05;;;;;;;21.34;63.26;98532.59;4404958;32;33256;-88
2021/05/12 15:40:04;;;;;;;17.25;11.27;;;;;;;21.23;64.61;98533.81;4420496;32;33716;-88
2021/05/12 15:42:37;;;;;;;13.60;10.10;;;;;;;21.24;64.33;98523.63;4420467;32;33618;-88
2021/05/12 15:45:11;;;;;;;12.37;10.45;;;;;;;21.46;64.24;98523.16;4420757;32;32883;-88
2021/05/12 15:47:44;;;;;;;13.65;12.02;;;;;;;21.45;63.80;98532.50;4405673;32;35850;-87
2021/05/12 15:50:17;;;;;;;11.43;10.25;;;;;;;21.41;62.75;98542.47;4420092;32;34853;-88
2021/05/12 15:52:50;;;;;;;12.98;11.52;;;;;;;21.23;63.46;98538.44;4404729;32;35084;-88
2021/05/12 15:55:23;;;;;;;11.98;10.63;;;;;;;21.33;63.41;98536.47;4420220;32;34354;-88
2021/05/12 15:57:56;;;;;;;10.60;9.50;;;;;;;20.97;63.40;98530.41;4406658;32;34717;-89
2021/05/12 16:00:28;;;;;;;11.10;9.43;;;;;;;20.87;61.90;98534.06;4418193;32;33816;-89
2021/05/12 16:03:01;;;;;;;13.88;9.63;;;;;;;20.81;63.31;98529.72;4392288;32;33758;-90
2021/05/12 16:05:34;;;;;;;11.80;9.32;;;;;;;20.57;63.05;98526.78;4370889;32;35145;-91
2021/05/12 16:08:08;;;;;;;10.55;9.15;;;;;;;20.43;64.71;98526.56;4412310;32;33382;-91
2021/05/12 16:10:40;;;;;;;12.48;10.57;;;;;;;20.83;64.12;98522.00;4406923;32;35222;-90